Time;durP1;ratioP1;P1;durP2;ratioP2;P2;SDS_P1;SDS_P2;PMS_P1;PMS_P2;Temp;Humidity;BMP_temperature;BMP_pressure;BME280_temperature;BME280_humidity;BME280_pressure;Samples;Min_cycle;Max_cycle;Signal;HPM_P1;HPM_P2
2023/03/23 00:01:19;;;;;;;4.00;1.90;;;11.20;99.90;;;;;;5076855;28;25062;-77
2023/03/23 00:03:52;;;;;;;5.35;1.45;;;11.10;99.90;;;;;;5076812;28;25079;-77
2023/03/23 00:06:20;;;;;;;4.05;1.70;;;11.10;99.90;;;;;;5077000;28;25086;-77
2023/03/23 00:08:52;;;;;;;6.50;1.30;;;11.00;99.90;;;;;;5076784;28;25112;-78
2023/03/23 00:11:22;;;;;;;4.28;1.10;;;10.90;99.90;;;;;;5076763;28;25102;-77
2023/03/23 00:13:51;;;;;;;5.85;1.40;;;10.90;99.90;;;;;;5076968;28;25035;-77
2023/03/23 00:16:30;;;;;;;4.68;1.70;;;10.90;99.90;;;;;;5076794;28;25072;-77
2023/03/23 00:19:08;;;;;;;4.63;1.15;;;10.90;99.90;;;;;;5076526;28;25077;-77
2023/03/23 00:21:38;;;;;;;5.13;1.33;;;10.90;99.90;;;;;;5058737;28;25064;-77
2023/03/23 00:24:19;;;;;;;6.30;1.80;;;10.90;99.90;;;;;;5076815;28;25109;-77
2023/03/23 00:26:48;;;;;;;3.88;1.02;;;10.90;99.90;;;;;;5076983;28;25080;-77
2023/03/23 00:29:22;;;;;;;3.83;1.60;;;10.90;99.90;;;;;;5058680;28;25068;-77
2023/03/23 00:31:50;;;;;;;4.90;1.42;;;10.90;99.90;;;;;;5076516;28;25102;-77
2023/03/23 00:34:20;;;;;;;3.47;1.85;;;10.90;99.90;;;;;;5058700;28;25073;-77
2023/03/23 00:36:49;;;;;;;4.30;1.40;;;10.90;99.90;;;;;;5076875;28;25061;-77
2023/03/23 00:39:18;;;;;;;2.08;1.20;;;10.90;99.90;;;;;;5076391;28;25062;-77
2023/03/23 00:41:46;;;;;;;2.10;1.10;;;10.90;99.90;;;;;;5076595;28;25070;-77
2023/03/23 00:44:18;;;;;;;5.28;1.27;;;10.80;99.90;;;;;;5076276;28;25069;-77
2023/03/23 00:46:49;;;;;;;5.95;1.50;;;10.80;99.90;;;;;;5076575;28;25078;-77
2023/03/23 00:49:24;;;;;;;7.32;2.22;;;10.80;99.90;;;;;;5058595;28;25108;-77
2023/03/23 00:51:58;;;;;;;3.17;1.58;;;10.80;99.90;;;;;;5076041;28;25087;-77
2023/03/23 00:54:25;;;;;;;6.30;1.67;;;10.70;99.90;;;;;;5076245;28;25058;-77
2023/03/23 00:56:53;;;;;;;6.05;1.27;;;10.80;99.90;;;;;;5058670;28;25121;-77
2023/03/23 00:59:21;;;;;;;4.50;1.35;;;10.90;99.90;;;;;;5080372;28;25073;-77
2023/03/23 01:01:49;;;;;;;2.53;1.42;;;10.90;99.90;;;;;;5062782;28;25100;-77
2023/03/23 01:04:17;;;;;;;2.33;1.30;;;11.00;99.90;;;;;;5080307;28;25073;-77
2023/03/23 01:06:50;;;;;;;4.20;1.60;;;11.00;99.90;;;;;;5062667;28;25064;-78
2023/03/23 01:09:19;;;;;;;4.00;1.45;;;11.00;99.90;;;;;;5080504;28;25063;-77
2023/03/23 01:11:48;;;;;;;4.70;1.08;;;11.10;99.90;;;;;;5080199;28;25074;-77
2023/03/23 01:14:17;;;;;;;2.92;1.20;;;11.10;99.90;;;;;;5080392;28;25064;-78
2023/03/23 01:16:45;;;;;;;3.63;1.33;;;11.00;99.90;;;;;;5080243;28;25058;-77
2023/03/23 01:19:12;;;;;;;2.47;1.23;;;11.10;99.90;;;;;;5079995;28;25113;-77
2023/03/23 01:21:39;;;;;;;3.22;1.17;;;11.00;99.90;;;;;;5079903;28;25122;-78
2023/03/23 01:24:07;;;;;;;5.75;1.50;;;11.10;99.90;;;;;;5080147;28;25103;-78
2023/03/23 01:26:34;;;;;;;4.72;1.20;;;11.10;99.90;;;;;;5080345;28;25111;-78
2023/03/23 01:29:01;;;;;;;3.47;1.20;;;11.10;99.90;;;;;;5080024;28;25065;-77
2023/03/23 01:31:29;;;;;;;6.50;2.08;;;11.10;99.90;;;;;;5079798;28;25101;-78
2023/03/23 01:33:57;;;;;;;5.40;1.65;;;11.00;99.90;;;;;;5079943;28;25069;-78
2023/03/23 01:36:32;;;;;;;2.60;1.40;;;11.00;99.90;;;;;;5062009;28;25064;-78
2023/03/23 01:39:03;;;;;;;2.83;1.45;;;10.90;99.90;;;;;;5080139;28;25125;-77
2023/03/23 01:41:31;;;;;;;2.63;1.52;;;10.90;99.90;;;;;;5061828;28;25139;-77
2023/03/23 01:44:09;;;;;;;6.20;1.75;;;10.80;99.90;;;;;;5079485;28;25112;-77
2023/03/23 01:46:37;;;;;;;2.45;1.13;;;10.80;99.90;;;;;;5079914;28;25073;-77
2023/03/23 01:49:25;;;;;;;6.03;1.33;;;10.80;99.90;;;;;;5061642;28;25107;-77
2023/03/23 01:52:05;;;;;;;5.43;1.70;;;10.70;99.90;;;;;;5079188;28;25067;-77
2023/03/23 01:54:34;;;;;;;4.15;1.77;;;10.70;99.90;;;;;;5079307;28;25056;-77
2023/03/23 01:57:16;;;;;;;3.42;1.80;;;10.70;99.90;;;;;;5079736;28;25068;-78
2023/03/23 01:59:52;;;;;;;7.43;2.30;;;10.60;99.90;;;;;;5061407;28;25052;-77
2023/03/23 02:02:22;;;;;;;6.28;3.17;;;10.60;99.90;;;;;;5079391;28;25097;-78
2023/03/23 02:04:51;;;;;;;4.18;1.63;;;10.60;99.90;;;;;;5061425;28;25067;-78
2023/03/23 02:07:20;;;;;;;3.92;1.83;;;10.60;99.90;;;;;;5079394;28;25069;-77
2023/03/23 02:09:47;;;;;;;3.78;1.83;;;10.60;99.90;;;;;;5077971;28;25068;-77
2023/03/23 02:12:15;;;;;;;4.80;2.03;;;10.60;99.90;;;;;;5079310;28;25050;-78
2023/03/23 02:14:42;;;;;;;7.03;2.20;;;10.60;99.90;;;;;;5079022;28;25124;-78
2023/03/23 02:17:25;;;;;;;9.30;2.33;;;10.60;99.90;;;;;;5079550;28;25092;-78
2023/03/23 02:20:18;;;;;;;6.05;2.08;;;10.60;99.90;;;;;;5078893;28;25066;-78
2023/03/23 02:23:05;;;;;;;6.90;2.08;;;10.60;99.90;;;;;;5078848;28;25068;-78
2023/03/23 02:26:09;;;;;;;4.32;1.73;;;10.60;99.90;;;;;;5061034;28;25119;-78
2023/03/23 02:29:22;;;;;;;5.10;2.20;;;10.60;99.90;;;;;;5057020;28;25142;-78
2023/03/23 02:32:02;;;;;;;5.72;1.48;;;10.50;99.90;;;;;;5060871;28;25123;-78
2023/03/23 02:34:40;;;;;;;5.25;2.17;;;10.50;99.90;;;;;;5078923;28;25052;-78
2023/03/23 02:37:32;;;;;;;5.93;1.70;;;10.50;99.90;;;;;;5060892;28;25063;-78
2023/03/23 02:40:33;;;;;;;5.45;2.42;;;10.60;99.90;;;;;;5078708;28;25069;-78
2023/03/23 02:43:01;;;;;;;10.00;2.75;;;10.60;99.90;;;;;;5078474;28;25073;-78
2023/03/23 02:45:33;;;;;;;3.50;1.75;;;10.60;99.90;;;;;;5060708;28;25056;-78
2023/03/23 02:48:04;;;;;;;3.60;1.58;;;10.60;99.90;;;;;;5078701;28;25121;-78
2023/03/23 02:50:33;;;;;;;3.50;1.42;;;10.60;99.90;;;;;;5078756;28;25104;-78
2023/03/23 02:53:01;;;;;;;3.72;1.95;;;10.60;99.90;;;;;;5078539;28;25088;-78
2023/03/23 02:55:31;;;;;;;3.35;1.45;;;10.60;99.90;;;;;;5078564;28;25100;-78
2023/03/23 02:58:01;;;;;;;3.35;1.45;;;10.60;99.90;;;;;;5060420;28;24842;-78
2023/03/23 03:00:30;;;;;;;5.68;1.85;;;10.60;99.90;;;;;;5078514;28;25062;-78
2023/03/23 03:02:58;;;;;;;4.57;1.73;;;10.60;99.90;;;;;;5078386;28;25127;-78
2023/03/23 03:05:41;;;;;;;5.20;1.60;;;10.60;99.90;;;;;;5078328;28;25080;-78
2023/03/23 03:08:17;;;;;;;5.28;1.73;;;10.60;99.90;;;;;;5077985;28;25074;-78
2023/03/23 03:11:04;;;;;;;4.47;1.60;;;10.60;99.90;;;;;;5078361;28;25110;-78
2023/03/23 03:14:12;;;;;;;2.53;1.50;;;10.60;99.90;;;;;;5078105;28;25068;-78
2023/03/23 03:16:46;;;;;;;;;;;10.50;99.90;;;;;;5078500;28;25051;-78
2023/03/23 03:19:25;;;;;;;3.53;1.63;;;10.50;99.90;;;;;;5060037;28;25117;-78
2023/03/23 03:21:55;;;;;;;3.97;2.20;;;10.50;99.90;;;;;;5059621;28;25138;-78
2023/03/23 03:24:24;;;;;;;7.05;2.90;;;10.50;99.90;;;;;;5077641;28;25131;-79
2023/03/23 03:26:53;;;;;;;5.72;1.98;;;10.40;99.90;;;;;;5077863;28;25053;-78
2023/03/23 03:29:34;;;;;;;7.47;2.58;;;10.40;99.90;;;;;;5060209;28;25055;-79
2023/03/23 03:32:05;;;;;;;3.70;1.98;;;10.40;99.90;;;;;;5077802;28;25077;-79
2023/03/23 03:34:33;;;;;;;5.10;1.70;;;10.40;99.90;;;;;;5077421;28;25141;-78
2023/03/23 03:37:00;;;;;;;7.93;1.50;;;10.40;99.90;;;;;;5077875;28;25122;-78
2023/03/23 03:39:28;;;;;;;4.07;1.50;;;10.40;99.90;;;;;;5077322;28;25079;-78
2023/03/23 03:41:55;;;;;;;4.18;1.25;;;10.40;99.90;;;;;;5077502;28;25053;-78
2023/03/23 03:44:23;;;;;;;4.90;1.20;;;10.40;99.90;;;;;;5077467;28;25080;-78
2023/03/23 03:46:50;;;;;;;3.05;1.75;;;10.40;99.90;;;;;;5077405;28;25064;-78
2023/03/23 03:49:17;;;;;;;3.15;1.30;;;10.30;99.90;;;;;;5077403;28;25101;-78
2023/03/23 03:51:45;;;;;;;5.22;1.20;;;10.30;99.90;;;;;;5055861;28;25101;-78
2023/03/23 03:54:12;;;;;;;5.53;1.33;;;10.40;99.90;;;;;;5057266;28;25395;-78
2023/03/23 03:56:43;;;;;;;6.43;1.67;;;10.40;99.90;;;;;;5056201;28;25094;-78
2023/03/23 03:59:12;;;;;;;2.72;1.50;;;10.40;99.90;;;;;;5056988;28;25080;-78
2023/03/23 04:01:39;;;;;;;4.53;1.40;;;10.40;99.90;;;;;;5055810;28;25059;-78
2023/03/23 04:04:07;;;;;;;3.72;1.30;;;10.50;99.90;;;;;;5056875;28;25119;-78
2023/03/23 04:06:37;;;;;;;2.13;0.88;;;10.50;99.90;;;;;;5057050;28;25123;-78
2023/03/23 04:09:07;;;;;;;3.05;1.30;;;10.50;99.90;;;;;;5056814;28;25053;-78
2023/03/23 04:11:34;;;;;;;3.05;1.23;;;10.60;99.90;;;;;;5056702;28;25090;-78
2023/03/23 04:14:02;;;;;;;3.13;1.10;;;10.60;99.90;;;;;;5056712;28;25069;-78
2023/03/23 04:16:29;;;;;;;5.60;1.58;;;10.60;99.90;;;;;;5056328;28;25100;-78
2023/03/23 04:18:57;;;;;;;2.13;1.00;;;10.70;99.90;;;;;;5055605;28;25124;-78
2023/03/23 04:21:28;;;;;;;4.53;1.50;;;10.70;99.90;;;;;;5055451;28;25048;-78
2023/03/23 04:23:58;;;;;;;2.85;1.17;;;10.70;99.90;;;;;;5056453;28;25071;-78
2023/03/23 04:26:29;;;;;;;2.17;0.90;;;10.70;99.90;;;;;;5056682;28;25079;-78
2023/03/23 04:28:58;;;;;;;0.95;0.60;;;10.60;99.90;;;;;;5055876;28;25062;-78
2023/03/23 04:31:26;;;;;;;2.53;1.10;;;10.60;99.90;;;;;;5055422;28;25111;-78
2023/03/23 04:33:53;;;;;;;2.33;1.20;;;10.60;99.90;;;;;;5055542;28;25052;-78
2023/03/23 04:36:22;;;;;;;2.25;0.90;;;10.60;99.90;;;;;;5055335;28;25007;-78
2023/03/23 04:38:50;;;;;;;3.80;1.10;;;10.60;99.90;;;;;;5055319;28;25084;-78
2023/03/23 04:41:18;;;;;;;1.92;0.75;;;10.60;99.90;;;;;;5056090;28;25065;-78
2023/03/23 04:43:45;;;;;;;2.47;1.25;;;10.60;99.90;;;;;;5055262;28;25065;-78
2023/03/23 04:46:15;;;;;;;3.35;1.38;;;10.60;99.90;;;;;;5056293;28;25118;-78
2023/03/23 04:48:43;;;;;;;5.13;1.00;;;10.60;99.90;;;;;;5055208;28;25122;-78
2023/03/23 04:51:15;;;;;;;2.08;1.00;;;10.60;99.90;;;;;;5066672;28;25078;-78
2023/03/23 04:53:42;;;;;;;2.63;0.80;;;10.60;99.90;;;;;;5076860;28;25078;-78
2023/03/23 04:56:09;;;;;;;2.70;1.52;;;10.60;99.90;;;;;;5058433;28;25111;-78
2023/03/23 04:58:37;;;;;;;3.42;1.15;;;10.60;99.90;;;;;;5058382;28;25069;-78
2023/03/23 05:01:04;;;;;;;2.05;0.60;;;10.60;99.90;;;;;;5075691;28;25079;-78
2023/03/23 05:03:32;;;;;;;1.85;0.93;;;10.70;99.90;;;;;;5058622;28;25051;-78
2023/03/23 05:06:03;;;;;;;2.63;1.05;;;10.70;99.90;;;;;;5058393;28;25053;-78
2023/03/23 05:08:31;;;;;;;3.50;0.77;;;10.70;99.90;;;;;;5058296;28;25054;-78
2023/03/23 05:11:00;;;;;;;1.80;0.90;;;10.70;99.90;;;;;;5076252;28;25084;-78
2023/03/23 05:13:30;;;;;;;2.38;1.00;;;10.70;99.90;;;;;;5076324;28;25055;-78
2023/03/23 05:15:57;;;;;;;1.75;0.82;;;10.70;99.90;;;;;;5076081;28;25069;-78
2023/03/23 05:18:26;;;;;;;0.95;0.55;;;10.70;99.90;;;;;;5075993;28;25062;-78
2023/03/23 05:20:53;;;;;;;1.88;0.90;;;10.70;99.90;;;;;;5076489;28;25098;-78
2023/03/23 05:23:20;;;;;;;1.00;0.57;;;10.70;99.90;;;;;;5076275;28;25117;-78
2023/03/23 05:25:55;;;;;;;1.92;0.73;;;10.70;99.90;;;;;;5076255;28;25105;-78
2023/03/23 05:28:23;;;;;;;2.35;0.90;;;10.70;99.90;;;;;;5058204;28;25076;-78
2023/03/23 05:30:50;;;;;;;1.80;0.65;;;10.80;99.90;;;;;;5076339;28;25100;-78
2023/03/23 05:33:18;;;;;;;1.92;0.73;;;10.80;99.90;;;;;;5076143;28;25110;-78
2023/03/23 05:35:47;;;;;;;4.68;1.05;;;10.80;99.90;;;;;;5058107;28;25078;-78
2023/03/23 05:38:16;;;;;;;2.35;0.70;;;10.80;99.90;;;;;;5075787;28;25061;-78
2023/03/23 05:40:43;;;;;;;1.80;0.50;;;10.80;99.90;;;;;;5076177;28;25133;-78
2023/03/23 05:43:11;;;;;;;2.30;0.90;;;10.80;99.90;;;;;;5076304;28;25062;-78
2023/03/23 05:45:38;;;;;;;3.40;1.30;;;10.80;99.90;;;;;;5079549;28;25071;-78
2023/03/23 05:48:06;;;;;;;3.63;0.95;;;10.80;99.90;;;;;;5079762;28;25111;-78
2023/03/23 05:50:33;;;;;;;2.63;0.98;;;10.80;99.90;;;;;;5079474;28;25089;-78
2023/03/23 05:53:04;;;;;;;1.88;0.88;;;10.80;99.90;;;;;;5061636;28;25060;-80
2023/03/23 05:55:32;;;;;;;3.47;0.73;;;10.80;99.90;;;;;;5079676;28;25062;-78
2023/03/23 05:58:00;;;;;;;3.42;0.88;;;10.80;99.90;;;;;;5061544;28;25108;-78
2023/03/23 06:00:29;;;;;;;4.85;0.95;;;10.90;99.90;;;;;;5061787;28;25068;-78
2023/03/23 06:02:58;;;;;;;2.88;1.08;;;10.90;99.90;;;;;;5061357;28;25050;-78
2023/03/23 06:05:25;;;;;;;1.27;0.70;;;10.90;99.90;;;;;;5061450;28;25089;-78
2023/03/23 06:07:53;;;;;;;3.63;1.10;;;10.90;99.90;;;;;;5079378;28;25091;-78
2023/03/23 06:10:21;;;;;;;1.35;0.80;;;10.90;99.90;;;;;;5061594;28;25104;-78
2023/03/23 06:12:51;;;;;;;2.28;1.17;;;10.90;99.90;;;;;;5061826;28;25062;-78
2023/03/23 06:15:18;;;;;;;2.13;1.00;;;11.00;99.90;;;;;;5079279;28;25049;-78
2023/03/23 06:17:46;;;;;;;2.58;0.80;;;11.00;99.90;;;;;;5078961;28;25052;-86
2023/03/23 06:20:14;;;;;;;4.88;1.00;;;11.00;99.90;;;;;;5079186;28;25129;-78
2023/03/23 06:22:42;;;;;;;1.13;0.70;;;11.00;99.90;;;;;;5079137;28;25084;-78
2023/03/23 06:25:11;;;;;;;1.73;0.90;;;11.00;99.90;;;;;;5061041;28;25068;-75
2023/03/23 06:27:39;;;;;;;4.85;1.23;;;11.10;99.90;;;;;;5078770;28;25129;-76
2023/03/23 06:30:07;;;;;;;2.65;1.00;;;11.20;99.90;;;;;;5060874;28;25071;-75
2023/03/23 06:32:34;;;;;;;1.30;0.68;;;11.30;99.90;;;;;;5078884;28;25129;-76
2023/03/23 06:35:03;;;;;;;2.90;1.00;;;11.40;99.90;;;;;;5078609;28;25113;-77
2023/03/23 06:37:30;;;;;;;3.00;1.10;;;11.50;99.90;;;;;;5078654;28;25058;-76
2023/03/23 06:39:58;;;;;;;1.60;1.00;;;11.60;99.90;;;;;;5078610;28;25073;-77
2023/03/23 06:42:26;;;;;;;1.60;0.70;;;11.60;99.90;;;;;;5078895;28;25132;-75
2023/03/23 06:44:56;;;;;;;2.08;1.00;;;11.70;99.90;;;;;;5078877;28;25063;-77
2023/03/23 06:47:32;;;;;;;6.53;0.82;;;11.80;99.90;;;;;;5060479;28;25073;-79
2023/03/23 06:49:59;;;;;;;2.00;0.80;;;11.80;99.90;;;;;;5062617;28;25104;-77
2023/03/23 06:52:27;;;;;;;2.10;0.77;;;11.80;99.90;;;;;;5078524;28;25140;-78
2023/03/23 06:54:54;;;;;;;2.13;0.70;;;11.80;99.90;;;;;;5059935;28;25073;-78
2023/03/23 06:57:21;;;;;;;2.00;1.05;;;11.80;99.90;;;;;;5078187;28;25064;-79
2023/03/23 06:59:49;;;;;;;2.03;1.00;;;11.80;99.90;;;;;;5078182;28;25071;-77
2023/03/23 07:02:17;;;;;;;2.08;0.80;;;11.80;99.90;;;;;;5078374;28;25065;-80
2023/03/23 07:04:45;;;;;;;1.50;0.88;;;11.90;99.90;;;;;;5078049;28;25077;-80
2023/03/23 07:07:14;;;;;;;3.30;1.45;;;11.90;99.90;;;;;;5078013;28;25048;-78
2023/03/23 07:09:42;;;;;;;2.42;0.77;;;11.90;99.90;;;;;;5077902;28;25057;-78
2023/03/23 07:12:09;;;;;;;3.63;1.00;;;11.90;99.90;;;;;;5060246;28;25099;-77
2023/03/23 07:14:37;;;;;;;1.83;0.88;;;12.00;99.90;;;;;;5078156;28;25058;-79
2023/03/23 07:17:05;;;;;;;4.30;1.00;;;12.00;99.90;;;;;;5078274;28;25059;-81
2023/03/23 07:19:33;;;;;;;1.80;0.80;;;12.10;99.90;;;;;;5077783;28;25046;-80
2023/03/23 07:22:00;;;;;;;2.00;1.00;;;12.10;99.90;;;;;;5077954;28;25109;-77
2023/03/23 07:24:27;;;;;;;4.15;1.13;;;12.10;99.90;;;;;;5059935;28;25134;-80
2023/03/23 07:26:55;;;;;;;1.80;0.90;;;12.10;99.90;;;;;;5060278;28;25119;-77
2023/03/23 07:29:24;;;;;;;2.65;0.88;;;12.10;99.90;;;;;;5059849;28;25109;-80
2023/03/23 07:31:53;;;;;;;1.38;0.80;;;12.10;99.90;;;;;;5059791;28;25071;-79
2023/03/23 07:34:20;;;;;;;2.00;0.90;;;12.10;99.90;;;;;;5077501;28;25100;-78
2023/03/23 07:36:48;;;;;;;4.07;1.30;;;12.30;99.90;;;;;;5077858;28;25109;-74
2023/03/23 07:39:15;;;;;;;2.63;1.10;;;12.40;99.90;;;;;;5077827;28;25135;-76
2023/03/23 07:41:43;;;;;;;1.75;0.93;;;12.50;99.90;;;;;;5077177;28;25073;-78
2023/03/23 07:44:10;;;;;;;1.63;0.90;;;12.60;99.90;;;;;;5077531;28;25056;-79
2023/03/23 07:46:38;;;;;;;2.75;1.10;;;12.70;99.90;;;;;;5059656;28;25092;-82
2023/03/23 07:49:06;;;;;;;2.10;0.80;;;12.80;99.90;;;;;;5077194;28;25106;-82
2023/03/23 07:51:34;;;;;;;3.70;1.60;;;12.90;99.90;;;;;;5077020;28;25068;-78
2023/03/23 07:54:06;;;;;;;2.92;1.10;;;13.00;99.90;;;;;;5077318;28;25092;-79
2023/03/23 07:56:35;;;;;;;2.92;1.00;;;13.00;99.90;;;;;;5077498;28;25065;-81
2023/03/23 07:59:04;;;;;;;2.45;0.90;;;13.10;99.90;;;;;;5059438;28;25130;-79
2023/03/23 08:01:32;;;;;;;4.80;1.50;;;13.10;99.90;;;;;;5077207;28;25128;-79
2023/03/23 08:03:59;;;;;;;2.88;1.00;;;13.10;99.90;;;;;;5059221;28;25050;-79
2023/03/23 08:06:27;;;;;;;2.78;1.10;;;13.10;99.90;;;;;;5058935;28;25053;-79
2023/03/23 08:08:56;;;;;;;2.60;1.23;;;13.20;99.90;;;;;;5058812;28;25074;-79
2023/03/23 08:11:24;;;;;;;3.33;1.25;;;13.20;99.90;;;;;;5059613;28;25079;-79
2023/03/23 08:13:52;;;;;;;3.15;1.10;;;13.20;99.90;;;;;;5076793;28;25063;-79
2023/03/23 08:16:19;;;;;;;2.05;0.77;;;13.30;99.90;;;;;;5077043;28;25071;-79
2023/03/23 08:18:47;;;;;;;4.43;1.33;;;13.30;99.90;;;;;;5076671;28;25087;-79
2023/03/23 08:21:14;;;;;;;1.90;0.88;;;13.40;99.90;;;;;;5058796;28;25055;-79
2023/03/23 08:23:41;;;;;;;4.43;1.27;;;13.40;99.90;;;;;;5076628;28;25054;-79
2023/03/23 08:26:09;;;;;;;2.88;1.15;;;13.40;99.90;;;;;;5077104;28;25090;-79
2023/03/23 08:28:37;;;;;;;4.38;1.45;;;13.40;99.90;;;;;;5058825;28;25089;-79
2023/03/23 08:31:09;;;;;;;3.03;1.08;;;13.40;99.90;;;;;;5076580;28;25142;-79
2023/03/23 08:33:38;;;;;;;1.95;0.90;;;13.40;99.90;;;;;;5074896;28;25117;-79
2023/03/23 08:36:08;;;;;;;4.55;1.13;;;13.40;99.90;;;;;;5076711;28;25074;-79
2023/03/23 08:38:36;;;;;;;5.70;1.83;;;13.50;99.90;;;;;;5076201;28;25065;-79
2023/03/23 08:41:06;;;;;;;7.72;1.23;;;13.50;99.90;;;;;;5076310;28;25070;-79
2023/03/23 08:43:34;;;;;;;3.42;1.02;;;13.60;99.90;;;;;;5076378;28;25068;-79
2023/03/23 08:46:06;;;;;;;5.72;1.30;;;13.60;99.90;;;;;;5058666;28;25069;-79
2023/03/23 08:48:35;;;;;;;4.03;1.30;;;13.70;99.90;;;;;;5076629;28;25111;-79
2023/03/23 08:51:04;;;;;;;4.57;1.20;;;13.70;99.90;;;;;;5076131;28;25075;-79
2023/03/23 08:53:31;;;;;;;7.00;1.75;;;13.70;99.90;;;;;;5076523;28;25071;-79
2023/03/23 08:56:10;;;;;;;2.15;1.13;;;13.60;99.90;;;;;;5076768;28;25057;-79
2023/03/23 08:58:38;;;;;;;3.63;1.38;;;13.60;99.90;;;;;;5076827;28;25142;-79
2023/03/23 09:01:07;;;;;;;4.03;1.30;;;13.60;99.90;;;;;;5076411;28;25132;-79
2023/03/23 09:03:35;;;;;;;3.78;1.15;;;13.60;99.90;;;;;;5076173;28;25066;-79
2023/03/23 09:06:05;;;;;;;2.83;1.10;;;13.60;99.90;;;;;;5076560;28;25103;-79
2023/03/23 09:08:35;;;;;;;2.95;1.33;;;13.60;99.90;;;;;;5058325;28;25053;-79
2023/03/23 09:11:04;;;;;;;5.38;1.38;;;13.60;99.90;;;;;;5076095;28;25106;-79
2023/03/23 09:13:32;;;;;;;4.05;1.55;;;13.70;99.90;;;;;;5076111;28;25065;-79
2023/03/23 09:15:59;;;;;;;3.97;1.23;;;13.70;99.90;;;;;;5058469;28;25126;-79
2023/03/23 09:18:27;;;;;;;5.78;1.00;;;13.80;99.90;;;;;;5077036;28;25068;-79
2023/03/23 09:20:55;;;;;;;5.38;1.00;;;13.90;99.90;;;;;;5080228;28;25108;-79
2023/03/23 09:23:22;;;;;;;4.85;1.48;;;13.90;99.90;;;;;;5079988;28;25112;-79
2023/03/23 09:25:51;;;;;;;2.78;1.40;;;14.00;99.90;;;;;;5080159;28;25048;-79
2023/03/23 09:28:18;;;;;;;5.72;2.03;;;14.00;99.90;;;;;;5080193;28;25078;-79
2023/03/23 09:30:47;;;;;;;7.15;1.33;;;14.00;99.90;;;;;;5079897;28;25057;-79
2023/03/23 09:33:15;;;;;;;10.18;2.17;;;13.90;99.90;;;;;;5079733;28;25052;-79
2023/03/23 09:35:43;;;;;;;6.15;1.50;;;14.00;99.90;;;;;;5080044;28;25055;-79
2023/03/23 09:38:12;;;;;;;5.45;1.40;;;14.00;99.90;;;;;;5079735;28;25052;-79
2023/03/23 09:40:50;;;;;;;6.43;2.72;;;13.90;99.90;;;;;;5062063;28;25117;-79
2023/03/23 09:43:40;;;;;;;4.55;1.13;;;13.90;99.90;;;;;;5079562;28;25086;-79
2023/03/23 09:46:46;;;;;;;6.85;1.30;;;13.90;99.90;;;;;;5061886;28;25129;-79
2023/03/23 09:49:34;;;;;;;10.57;1.55;;;13.90;99.90;;;;;;5079485;28;25075;-79
2023/03/23 09:52:16;;;;;;;3.63;1.73;;;14.00;99.90;;;;;;5079280;28;25079;-79
2023/03/23 09:54:55;;;;;;;6.13;1.30;;;14.10;99.90;;;;;;5079651;28;25056;-79
2023/03/23 09:57:32;;;;;;;4.10;0.95;;;14.30;99.90;;;;;;5061654;28;25138;-79
2023/03/23 10:00:14;;;;;;;3.25;0.88;;;14.30;99.90;;;;;;5079323;28;25081;-79
2023/03/23 10:03:02;;;;;;;5.07;1.20;;;14.30;99.90;;;;;;5061395;28;25147;-79
2023/03/23 10:05:34;;;;;;;65.32;33.88;;;14.10;99.90;;;;;;5079542;28;25091;-79
2023/03/23 10:08:14;;;;;;;4.55;1.60;;;14.00;99.90;;;;;;5079137;28;25076;-79
2023/03/23 10:10:57;;;;;;;4.63;1.48;;;14.00;99.90;;;;;;5079602;28;25128;-79
2023/03/23 10:13:39;;;;;;;5.95;0.93;;;14.00;99.90;;;;;;5079076;28;25053;-79
2023/03/23 10:16:22;;;;;;;10.32;1.80;;;14.00;99.90;;;;;;5079340;28;25067;-79
2023/03/23 10:19:10;;;;;;;4.53;1.13;;;14.00;99.90;;;;;;5079017;28;24787;-79
2023/03/23 10:21:43;;;;;;;2.33;1.08;;;14.10;99.90;;;;;;5079346;28;25114;-79
2023/03/23 10:24:15;;;;;;;4.10;1.60;;;14.10;99.90;;;;;;5078884;28;25103;-79
2023/03/23 10:27:21;;;;;;;5.15;1.13;;;14.00;99.90;;;;;;5079136;28;25068;-79
2023/03/23 10:30:15;;;;;;;3.70;1.20;;;13.90;99.90;;;;;;5060131;28;25087;-79
2023/03/23 10:33:21;;;;;;;3.80;0.95;;;13.90;99.90;;;;;;5078712;28;25055;-79
2023/03/23 10:36:03;;;;;;;3.00;1.10;;;13.90;99.90;;;;;;5078739;28;25079;-79
2023/03/23 10:38:41;;;;;;;2.67;1.02;;;13.90;99.90;;;;;;5079218;28;25062;-79
2023/03/23 10:41:19;;;;;;;3.33;1.17;;;13.90;99.90;;;;;;5078677;28;25084;-79
2023/03/23 10:43:52;;;;;;;3.15;1.00;;;14.00;99.90;;;;;;5078532;28;25058;-79
2023/03/23 10:46:50;;;;;;;5.28;0.98;;;14.10;99.90;;;;;;5060995;28;25076;-79
2023/03/23 10:49:25;;;;;;;3.25;0.93;;;14.30;99.90;;;;;;5060647;28;25075;-79
2023/03/23 10:52:16;;;;;;;;;;;14.40;99.90;;;;;;5078712;28;25098;-77
2023/03/23 10:55:09;;;;;;;5.00;1.17;;;14.40;99.90;;;;;;5067899;28;25137;-81
2023/03/23 10:57:40;;;;;;;6.05;1.13;;;14.40;99.90;;;;;;5077229;28;25090;-81
2023/03/23 11:00:22;;;;;;;6.40;2.35;;;14.60;99.90;;;;;;5078311;28;25056;-82
2023/03/23 11:03:07;;;;;;;5.50;1.20;;;14.70;99.90;;;;;;5078668;28;25134;-82
2023/03/23 11:05:58;;;;;;;2.70;1.30;;;15.00;99.90;;;;;;5060321;28;25089;-84
2023/03/23 11:08:34;;;;;;;3.88;1.20;;;15.20;99.90;;;;;;5078567;28;25092;-90
2023/03/23 11:11:21;;;;;;;9.25;1.63;;;15.20;99.90;;;;;;5078384;28;25071;-85
2023/03/23 11:13:57;;;;;;;5.95;2.65;;;15.40;99.90;;;;;;5060161;28;25062;-79
2023/03/23 11:16:33;;;;;;;4.22;1.05;;;15.50;99.90;;;;;;5078156;28;25063;-82
2023/03/23 11:19:21;;;;;;;60.42;34.38;;;15.50;99.90;;;;;;5077755;28;25112;-81
2023/03/23 11:21:57;;;;;;;41.20;20.77;;;15.40;99.90;;;;;;5078097;28;25097;-81
2023/03/23 11:24:29;;;;;;;6.97;1.65;;;15.40;99.90;;;;;;5059937;28;25052;-80
2023/03/23 11:26:58;;;;;;;539.97;395.40;;;15.30;99.90;;;;;;5060037;28;25112;-80
2023/03/23 11:29:27;;;;;;;5.38;1.30;;;15.20;99.90;;;;;;5059760;28;25053;-84
2023/03/23 11:32:12;;;;;;;54.58;43.65;;;15.00;99.90;;;;;;5077950;28;25067;-83
2023/03/23 11:34:47;;;;;;;29.50;16.77;;;14.80;99.90;;;;;;5076830;28;25127;-83
2023/03/23 11:37:35;;;;;;;7.47;1.98;;;14.60;99.90;;;;;;5059368;28;20476;-84
2023/03/23 11:40:18;;;;;;;18.58;12.13;;;14.40;99.90;;;;;;5077395;28;25082;-81
2023/03/23 11:43:10;;;;;;;565.30;433.45;;;14.40;99.90;;;;;;5077624;28;20131;-80
2023/03/23 11:45:40;;;;;;;6.63;1.05;;;14.40;99.90;;;;;;5077307;28;25135;-80
2023/03/23 11:48:27;;;;;;;4.03;1.50;;;14.40;99.90;;;;;;5077239;28;25055;-80
2023/03/23 11:50:54;;;;;;;9.15;2.25;;;14.40;99.90;;;;;;5077299;28;25133;-80
2023/03/23 11:53:51;;;;;;;11.73;2.45;;;14.40;99.90;;;;;;5077401;28;25117;-80
2023/03/23 11:56:27;;;;;;;7.15;1.65;;;14.40;99.90;;;;;;5077103;28;25057;-81
2023/03/23 11:58:58;;;;;;;5.22;1.85;;;14.30;99.90;;;;;;5077285;28;25082;-79
2023/03/23 12:01:52;;;;;;;6.60;1.27;;;14.30;99.90;;;;;;5077050;28;25047;-80
2023/03/23 12:04:50;;;;;;;4.07;1.00;;;14.00;99.90;;;;;;5077214;28;25061;-79
2023/03/23 12:07:28;;;;;;;2.83;0.82;;;13.20;99.90;;;;;;5077116;28;25100;-78
2023/03/23 12:10:12;;;;;;;1.75;0.60;;;12.60;99.90;;;;;;5077051;28;25061;-79
2023/03/23 12:13:07;;;;;;;2.22;0.57;;;12.00;99.90;;;;;;5077072;28;25074;-79
2023/03/23 12:16:08;;;;;;;1.45;0.45;;;11.50;99.90;;;;;;5076734;28;25053;-80
2023/03/23 12:18:45;;;;;;;2.05;0.50;;;11.10;99.90;;;;;;5076938;28;25077;-79
2023/03/23 12:21:37;;;;;;;2.60;1.00;;;10.80;99.90;;;;;;5076956;28;25061;-80
2023/03/23 12:24:32;;;;;;;2.75;0.60;;;10.70;99.90;;;;;;5076817;28;25059;-79
2023/03/23 12:27:00;;;;;;;5.13;0.80;;;10.60;99.90;;;;;;5076848;28;25053;-79
2023/03/23 12:29:49;;;;;;;3.17;0.70;;;10.40;99.90;;;;;;5076806;28;25054;-80
2023/03/23 12:33:01;;;;;;;0.57;0.32;;;10.40;99.90;;;;;;5076911;28;25072;-80
2023/03/23 12:35:43;;;;;;;2.65;0.73;;;10.50;99.90;;;;;;4979273;28;25067;-80
2023/03/23 12:38:59;;;;;;;2.70;0.65;;;10.60;99.90;;;;;;5068492;28;25092;-80
2023/03/23 12:41:47;;;;;;;1.30;0.30;;;10.70;99.90;;;;;;5077039;28;25075;-80
2023/03/23 12:44:17;;;;;;;4.85;0.68;;;10.70;99.90;;;;;;5076583;28;25061;-80
2023/03/23 12:46:57;;;;;;;3.53;0.50;;;10.60;99.90;;;;;;5076322;28;25051;-80
2023/03/23 12:49:36;;;;;;;1.92;0.40;;;10.60;99.90;;;;;;5059289;28;25065;-80
2023/03/23 12:52:39;;;;;;;5.13;0.57;;;10.70;99.90;;;;;;5076090;28;25076;-80
2023/03/23 12:55:19;;;;;;;2.00;0.68;;;10.80;99.90;;;;;;5059639;28;25054;-80
2023/03/23 12:57:59;;;;;;;3.47;0.50;;;10.90;99.90;;;;;;5076489;28;25112;-80
2023/03/23 13:01:00;;;;;;;3.50;0.50;;;11.00;99.90;;;;;;5076114;28;25052;-80
2023/03/23 13:03:40;;;;;;;1.70;0.55;;;11.20;99.90;;;;;;5076385;28;25121;-80
2023/03/23 13:06:14;;;;;;;3.83;0.40;;;11.40;99.90;;;;;;5076351;28;25089;-80
2023/03/23 13:09:10;;;;;;;0.75;0.32;;;11.50;99.90;;;;;;5076134;28;25112;-80
2023/03/23 13:11:46;;;;;;;1.73;0.60;;;11.60;99.90;;;;;;5076126;28;25076;-80
2023/03/23 13:14:17;;;;;;;4.65;0.80;;;11.60;99.90;;;;;;5076105;28;25143;-80
2023/03/23 13:17:21;;;;;;;3.50;0.60;;;11.60;99.90;;;;;;5076503;28;25062;-80
2023/03/23 13:20:25;;;;;;;3.53;0.57;;;11.50;99.90;;;;;;5058174;28;25081;-80